sensor_id;sensor_type;location;lat;lon;timestamp;P1;durP1;ratioP1;P2;durP2;ratioP2
74959;SDS011;63518;49.572;1.106;2023-07-02T00:00:16;27.13;;;8.02;;
74959;SDS011;63518;49.572;1.106;2023-07-02T00:02:52;23.73;;;7.68;;
74959;SDS011;63518;49.572;1.106;2023-07-02T00:05:32;20.77;;;7.57;;
74959;SDS011;63518;49.572;1.106;2023-07-02T00:07:59;30.45;;;9.82;;
74959;SDS011;63518;49.572;1.106;2023-07-02T00:10:44;22.02;;;7.70;;
74959;SDS011;63518;49.572;1.106;2023-07-02T00:13:41;25.63;;;7.93;;
74959;SDS011;63518;49.572;1.106;2023-07-02T00:16:08;24.45;;;8.18;;
74959;SDS011;63518;49.572;1.106;2023-07-02T00:18:40;22.50;;;8.80;;
74959;SDS011;63518;49.572;1.106;2023-07-02T00:21:16;25.15;;;7.07;;
74959;SDS011;63518;49.572;1.106;2023-07-02T00:23:55;25.95;;;8.10;;
74959;SDS011;63518;49.572;1.106;2023-07-02T00:26:25;24.17;;;8.32;;
74959;SDS011;63518;49.572;1.106;2023-07-02T00:28:54;28.50;;;8.23;;
74959;SDS011;63518;49.572;1.106;2023-07-02T00:31:24;24.58;;;8.20;;
74959;SDS011;63518;49.572;1.106;2023-07-02T00:33:52;29.92;;;9.00;;
74959;SDS011;63518;49.572;1.106;2023-07-02T00:36:55;24.00;;;7.65;;
74959;SDS011;63518;49.572;1.106;2023-07-02T00:39:26;21.05;;;8.25;;
74959;SDS011;63518;49.572;1.106;2023-07-02T00:41:59;20.48;;;7.05;;
74959;SDS011;63518;49.572;1.106;2023-07-02T00:44:28;20.67;;;7.57;;
74959;SDS011;63518;49.572;1.106;2023-07-02T00:47:00;25.35;;;7.60;;
74959;SDS011;63518;49.572;1.106;2023-07-02T00:49:27;22.10;;;6.90;;
74959;SDS011;63518;49.572;1.106;2023-07-02T00:52:03;26.90;;;7.47;;
74959;SDS011;63518;49.572;1.106;2023-07-02T00:54:33;23.73;;;7.13;;
74959;SDS011;63518;49.572;1.106;2023-07-02T00:57:28;18.88;;;6.35;;
74959;SDS011;63518;49.572;1.106;2023-07-02T01:00:03;20.77;;;6.75;;
74959;SDS011;63518;49.572;1.106;2023-07-02T01:02:54;22.60;;;7.75;;
74959;SDS011;63518;49.572;1.106;2023-07-02T01:05:35;20.20;;;6.57;;
74959;SDS011;63518;49.572;1.106;2023-07-02T01:08:36;21.02;;;7.25;;
74959;SDS011;63518;49.572;1.106;2023-07-02T01:11:07;18.80;;;6.80;;
74959;SDS011;63518;49.572;1.106;2023-07-02T01:16:26;23.50;;;7.68;;
74959;SDS011;63518;49.572;1.106;2023-07-02T01:22:48;25.48;;;7.57;;
74959;SDS011;63518;49.572;1.106;2023-07-02T01:25:43;23.58;;;6.85;;
74959;SDS011;63518;49.572;1.106;2023-07-02T01:28:20;25.92;;;6.82;;
74959;SDS011;63518;49.572;1.106;2023-07-02T01:31:29;24.33;;;7.40;;
74959;SDS011;63518;49.572;1.106;2023-07-02T01:34:15;22.17;;;6.25;;
74959;SDS011;63518;49.572;1.106;2023-07-02T01:36:54;25.17;;;6.22;;
74959;SDS011;63518;49.572;1.106;2023-07-02T01:40:04;23.42;;;6.75;;
74959;SDS011;63518;49.572;1.106;2023-07-02T01:43:01;19.73;;;6.50;;
74959;SDS011;63518;49.572;1.106;2023-07-02T01:48:37;16.67;;;5.70;;
74959;SDS011;63518;49.572;1.106;2023-07-02T01:51:50;22.23;;;6.75;;
74959;SDS011;63518;49.572;1.106;2023-07-02T01:54:54;24.73;;;7.32;;
74959;SDS011;63518;49.572;1.106;2023-07-02T01:58:13;24.33;;;6.38;;
74959;SDS011;63518;49.572;1.106;2023-07-02T02:01:32;30.02;;;7.57;;
74959;SDS011;63518;49.572;1.106;2023-07-02T02:04:47;16.85;;;5.72;;
74959;SDS011;63518;49.572;1.106;2023-07-02T02:11:15;22.95;;;7.68;;
74959;SDS011;63518;49.572;1.106;2023-07-02T02:14:04;17.73;;;5.57;;
74959;SDS011;63518;49.572;1.106;2023-07-02T02:17:02;22.65;;;5.90;;
74959;SDS011;63518;49.572;1.106;2023-07-02T02:19:41;26.00;;;6.05;;
74959;SDS011;63518;49.572;1.106;2023-07-02T02:22:16;23.88;;;5.60;;
74959;SDS011;63518;49.572;1.106;2023-07-02T02:25:15;19.23;;;6.15;;
74959;SDS011;63518;49.572;1.106;2023-07-02T02:27:45;15.68;;;4.97;;
74959;SDS011;63518;49.572;1.106;2023-07-02T02:30:27;25.15;;;6.38;;
74959;SDS011;63518;49.572;1.106;2023-07-02T02:33:06;27.83;;;6.75;;
74959;SDS011;63518;49.572;1.106;2023-07-02T02:36:00;22.73;;;6.25;;
74959;SDS011;63518;49.572;1.106;2023-07-02T02:39:00;22.05;;;5.88;;
74959;SDS011;63518;49.572;1.106;2023-07-02T02:41:54;19.27;;;6.32;;
74959;SDS011;63518;49.572;1.106;2023-07-02T02:44:30;17.83;;;5.55;;
74959;SDS011;63518;49.572;1.106;2023-07-02T02:47:14;24.50;;;7.45;;
74959;SDS011;63518;49.572;1.106;2023-07-02T02:50:04;17.90;;;5.00;;
74959;SDS011;63518;49.572;1.106;2023-07-02T02:53:00;21.25;;;5.22;;
74959;SDS011;63518;49.572;1.106;2023-07-02T02:55:37;17.85;;;5.57;;
74959;SDS011;63518;49.572;1.106;2023-07-02T02:58:07;17.35;;;5.53;;
74959;SDS011;63518;49.572;1.106;2023-07-02T03:01:03;20.58;;;6.22;;
74959;SDS011;63518;49.572;1.106;2023-07-02T03:04:10;14.23;;;5.03;;
74959;SDS011;63518;49.572;1.106;2023-07-02T03:07:51;17.55;;;5.18;;
74959;SDS011;63518;49.572;1.106;2023-07-02T03:10:28;23.38;;;5.47;;
74959;SDS011;63518;49.572;1.106;2023-07-02T03:16:00;17.65;;;5.03;;
74959;SDS011;63518;49.572;1.106;2023-07-02T03:22:46;15.98;;;4.93;;
74959;SDS011;63518;49.572;1.106;2023-07-02T03:26:00;21.20;;;5.45;;
74959;SDS011;63518;49.572;1.106;2023-07-02T03:29:12;28.55;;;7.80;;
74959;SDS011;63518;49.572;1.106;2023-07-02T03:32:02;15.10;;;5.80;;
74959;SDS011;63518;49.572;1.106;2023-07-02T03:35:10;21.45;;;5.70;;
74959;SDS011;63518;49.572;1.106;2023-07-02T03:37:49;20.08;;;5.95;;
74959;SDS011;63518;49.572;1.106;2023-07-02T03:40:45;19.05;;;5.15;;
74959;SDS011;63518;49.572;1.106;2023-07-02T03:43:19;23.35;;;5.78;;
74959;SDS011;63518;49.572;1.106;2023-07-02T03:46:07;22.02;;;5.93;;
74959;SDS011;63518;49.572;1.106;2023-07-02T03:49:01;21.23;;;6.10;;
74959;SDS011;63518;49.572;1.106;2023-07-02T03:51:41;24.25;;;6.63;;
74959;SDS011;63518;49.572;1.106;2023-07-02T03:54:18;24.65;;;6.57;;
74959;SDS011;63518;49.572;1.106;2023-07-02T03:56:57;21.15;;;6.13;;
74959;SDS011;63518;49.572;1.106;2023-07-02T03:59:30;17.58;;;5.97;;
74959;SDS011;63518;49.572;1.106;2023-07-02T04:02:09;14.32;;;5.95;;
74959;SDS011;63518;49.572;1.106;2023-07-02T04:04:40;16.73;;;5.60;;
74959;SDS011;63518;49.572;1.106;2023-07-02T04:07:22;26.52;;;6.50;;
74959;SDS011;63518;49.572;1.106;2023-07-02T04:09:55;16.13;;;5.97;;
74959;SDS011;63518;49.572;1.106;2023-07-02T04:12:29;22.65;;;6.75;;
74959;SDS011;63518;49.572;1.106;2023-07-02T04:15:35;15.57;;;5.28;;
74959;SDS011;63518;49.572;1.106;2023-07-02T04:18:17;16.63;;;5.85;;
74959;SDS011;63518;49.572;1.106;2023-07-02T04:20:46;16.17;;;5.45;;
74959;SDS011;63518;49.572;1.106;2023-07-02T04:23:57;19.20;;;6.07;;
74959;SDS011;63518;49.572;1.106;2023-07-02T04:29:30;18.73;;;6.38;;
74959;SDS011;63518;49.572;1.106;2023-07-02T04:32:11;17.48;;;6.03;;
74959;SDS011;63518;49.572;1.106;2023-07-02T04:35:00;22.77;;;5.90;;
74959;SDS011;63518;49.572;1.106;2023-07-02T04:37:54;19.85;;;5.32;;
74959;SDS011;63518;49.572;1.106;2023-07-02T04:40:56;21.20;;;5.93;;
74959;SDS011;63518;49.572;1.106;2023-07-02T04:43:59;22.90;;;6.20;;
74959;SDS011;63518;49.572;1.106;2023-07-02T04:51:08;24.52;;;6.10;;
74959;SDS011;63518;49.572;1.106;2023-07-02T04:54:12;20.80;;;6.20;;
74959;SDS011;63518;49.572;1.106;2023-07-02T04:57:08;19.45;;;6.28;;
74959;SDS011;63518;49.572;1.106;2023-07-02T05:00:25;22.92;;;6.32;;
74959;SDS011;63518;49.572;1.106;2023-07-02T05:03:01;22.10;;;5.25;;
74959;SDS011;63518;49.572;1.106;2023-07-02T05:05:44;22.25;;;6.00;;
74959;SDS011;63518;49.572;1.106;2023-07-02T05:08:33;16.20;;;5.22;;
74959;SDS011;63518;49.572;1.106;2023-07-02T05:11:38;20.58;;;5.57;;
74959;SDS011;63518;49.572;1.106;2023-07-02T05:14:29;26.05;;;7.90;;
74959;SDS011;63518;49.572;1.106;2023-07-02T05:17:10;19.00;;;6.35;;
74959;SDS011;63518;49.572;1.106;2023-07-02T05:19:59;21.13;;;6.70;;
74959;SDS011;63518;49.572;1.106;2023-07-02T05:22:27;18.60;;;5.95;;
74959;SDS011;63518;49.572;1.106;2023-07-02T05:25:15;21.02;;;7.35;;
74959;SDS011;63518;49.572;1.106;2023-07-02T05:28:17;23.02;;;5.53;;
74959;SDS011;63518;49.572;1.106;2023-07-02T05:31:11;21.10;;;6.57;;
74959;SDS011;63518;49.572;1.106;2023-07-02T05:34:01;22.08;;;6.05;;
74959;SDS011;63518;49.572;1.106;2023-07-02T05:37:01;18.40;;;7.15;;
74959;SDS011;63518;49.572;1.106;2023-07-02T05:40:30;25.45;;;7.18;;
74959;SDS011;63518;49.572;1.106;2023-07-02T05:43:42;25.33;;;7.07;;
74959;SDS011;63518;49.572;1.106;2023-07-02T05:46:38;26.60;;;7.15;;
74959;SDS011;63518;49.572;1.106;2023-07-02T05:49:20;18.55;;;6.25;;
74959;SDS011;63518;49.572;1.106;2023-07-02T05:52:23;25.45;;;7.00;;
74959;SDS011;63518;49.572;1.106;2023-07-02T05:55:14;16.63;;;6.00;;
74959;SDS011;63518;49.572;1.106;2023-07-02T05:57:53;20.70;;;7.35;;
74959;SDS011;63518;49.572;1.106;2023-07-02T06:00:44;21.48;;;7.30;;
74959;SDS011;63518;49.572;1.106;2023-07-02T06:03:56;23.25;;;7.43;;
74959;SDS011;63518;49.572;1.106;2023-07-02T06:06:29;25.40;;;8.02;;
74959;SDS011;63518;49.572;1.106;2023-07-02T06:08:59;22.13;;;7.55;;
74959;SDS011;63518;49.572;1.106;2023-07-02T06:11:27;23.85;;;7.97;;
74959;SDS011;63518;49.572;1.106;2023-07-02T06:14:30;22.15;;;6.20;;
74959;SDS011;63518;49.572;1.106;2023-07-02T06:17:11;19.25;;;7.18;;
74959;SDS011;63518;49.572;1.106;2023-07-02T06:20:03;24.98;;;8.60;;
74959;SDS011;63518;49.572;1.106;2023-07-02T06:23:03;28.08;;;7.65;;
74959;SDS011;63518;49.572;1.106;2023-07-02T06:25:51;21.05;;;6.93;;
74959;SDS011;63518;49.572;1.106;2023-07-02T06:28:26;20.27;;;6.75;;
74959;SDS011;63518;49.572;1.106;2023-07-02T06:31:05;23.85;;;7.80;;
74959;SDS011;63518;49.572;1.106;2023-07-02T06:34:21;23.10;;;7.35;;
74959;SDS011;63518;49.572;1.106;2023-07-02T06:37:49;18.42;;;5.93;;
74959;SDS011;63518;49.572;1.106;2023-07-02T06:40:26;13.55;;;4.70;;
74959;SDS011;63518;49.572;1.106;2023-07-02T06:43:06;21.73;;;6.88;;
74959;SDS011;63518;49.572;1.106;2023-07-02T06:45:41;21.75;;;8.13;;
74959;SDS011;63518;49.572;1.106;2023-07-02T06:48:44;21.40;;;7.53;;
74959;SDS011;63518;49.572;1.106;2023-07-02T06:51:35;21.30;;;7.35;;
74959;SDS011;63518;49.572;1.106;2023-07-02T06:54:49;19.25;;;6.13;;
74959;SDS011;63518;49.572;1.106;2023-07-02T07:00:45;19.77;;;5.55;;
74959;SDS011;63518;49.572;1.106;2023-07-02T07:03:29;19.55;;;5.45;;
74959;SDS011;63518;49.572;1.106;2023-07-02T07:06:27;18.70;;;6.22;;
74959;SDS011;63518;49.572;1.106;2023-07-02T07:09:12;26.77;;;6.72;;
74959;SDS011;63518;49.572;1.106;2023-07-02T07:11:52;18.63;;;6.18;;
74959;SDS011;63518;49.572;1.106;2023-07-02T07:14:23;16.65;;;5.43;;
74959;SDS011;63518;49.572;1.106;2023-07-02T07:16:53;18.33;;;6.63;;
74959;SDS011;63518;49.572;1.106;2023-07-02T07:20:23;17.52;;;6.38;;
74959;SDS011;63518;49.572;1.106;2023-07-02T07:23:51;19.20;;;5.80;;
74959;SDS011;63518;49.572;1.106;2023-07-02T07:26:35;12.13;;;4.80;;
74959;SDS011;63518;49.572;1.106;2023-07-02T07:29:03;18.73;;;7.15;;
74959;SDS011;63518;49.572;1.106;2023-07-02T07:32:06;16.35;;;5.10;;
74959;SDS011;63518;49.572;1.106;2023-07-02T07:38:13;18.50;;;5.90;;
74959;SDS011;63518;49.572;1.106;2023-07-02T07:41:26;19.63;;;6.80;;
74959;SDS011;63518;49.572;1.106;2023-07-02T07:44:54;18.17;;;5.82;;
74959;SDS011;63518;49.572;1.106;2023-07-02T07:48:21;14.18;;;5.05;;
74959;SDS011;63518;49.572;1.106;2023-07-02T07:51:19;19.80;;;5.97;;
74959;SDS011;63518;49.572;1.106;2023-07-02T07:54:21;18.35;;;4.90;;
74959;SDS011;63518;49.572;1.106;2023-07-02T07:57:47;19.33;;;5.63;;
74959;SDS011;63518;49.572;1.106;2023-07-02T08:00:24;21.95;;;5.82;;
74959;SDS011;63518;49.572;1.106;2023-07-02T08:03:12;18.77;;;5.05;;
74959;SDS011;63518;49.572;1.106;2023-07-02T08:05:41;15.23;;;4.97;;
74959;SDS011;63518;49.572;1.106;2023-07-02T08:08:15;20.15;;;5.10;;
74959;SDS011;63518;49.572;1.106;2023-07-02T08:11:36;14.85;;;4.18;;
74959;SDS011;63518;49.572;1.106;2023-07-02T08:14:36;17.77;;;4.32;;
74959;SDS011;63518;49.572;1.106;2023-07-02T08:17:33;18.73;;;5.88;;
74959;SDS011;63518;49.572;1.106;2023-07-02T08:20:33;12.57;;;4.13;;
74959;SDS011;63518;49.572;1.106;2023-07-02T08:23:32;11.35;;;4.28;;
74959;SDS011;63518;49.572;1.106;2023-07-02T08:27:12;15.35;;;4.10;;
74959;SDS011;63518;49.572;1.106;2023-07-02T08:30:12;16.40;;;5.18;;
74959;SDS011;63518;49.572;1.106;2023-07-02T08:32:45;14.90;;;3.53;;
74959;SDS011;63518;49.572;1.106;2023-07-02T08:35:35;15.38;;;4.20;;
74959;SDS011;63518;49.572;1.106;2023-07-02T08:38:13;15.63;;;4.18;;
74959;SDS011;63518;49.572;1.106;2023-07-02T08:40:46;18.17;;;4.72;;
74959;SDS011;63518;49.572;1.106;2023-07-02T08:43:16;15.50;;;3.90;;
74959;SDS011;63518;49.572;1.106;2023-07-02T08:45:43;9.48;;;3.03;;
74959;SDS011;63518;49.572;1.106;2023-07-02T08:48:10;14.57;;;4.00;;
74959;SDS011;63518;49.572;1.106;2023-07-02T08:50:37;19.55;;;5.28;;
74959;SDS011;63518;49.572;1.106;2023-07-02T08:53:05;12.77;;;3.75;;
74959;SDS011;63518;49.572;1.106;2023-07-02T08:55:31;15.38;;;3.45;;
74959;SDS011;63518;49.572;1.106;2023-07-02T08:57:58;17.10;;;3.97;;
74959;SDS011;63518;49.572;1.106;2023-07-02T09:00:26;21.23;;;4.22;;
74959;SDS011;63518;49.572;1.106;2023-07-02T09:02:53;17.70;;;3.50;;
74959;SDS011;63518;49.572;1.106;2023-07-02T09:05:20;14.27;;;5.10;;
74959;SDS011;63518;49.572;1.106;2023-07-02T09:07:48;15.75;;;4.20;;
74959;SDS011;63518;49.572;1.106;2023-07-02T09:10:27;16.98;;;4.45;;
74959;SDS011;63518;49.572;1.106;2023-07-02T09:13:07;17.67;;;3.90;;
74959;SDS011;63518;49.572;1.106;2023-07-02T09:15:36;15.93;;;4.22;;
74959;SDS011;63518;49.572;1.106;2023-07-02T09:18:26;11.68;;;2.88;;
74959;SDS011;63518;49.572;1.106;2023-07-02T09:20:52;15.65;;;4.32;;
74959;SDS011;63518;49.572;1.106;2023-07-02T09:23:34;11.13;;;3.42;;
74959;SDS011;63518;49.572;1.106;2023-07-02T09:26:07;15.90;;;3.50;;
74959;SDS011;63518;49.572;1.106;2023-07-02T09:29:00;12.07;;;3.35;;
74959;SDS011;63518;49.572;1.106;2023-07-02T09:31:30;11.15;;;3.53;;
74959;SDS011;63518;49.572;1.106;2023-07-02T09:34:01;15.93;;;4.57;;
74959;SDS011;63518;49.572;1.106;2023-07-02T09:36:29;11.65;;;2.42;;
74959;SDS011;63518;49.572;1.106;2023-07-02T09:38:56;12.38;;;3.45;;
74959;SDS011;63518;49.572;1.106;2023-07-02T09:41:23;14.80;;;3.95;;
74959;SDS011;63518;49.572;1.106;2023-07-02T09:43:50;15.80;;;4.07;;
74959;SDS011;63518;49.572;1.106;2023-07-02T09:46:17;14.23;;;3.70;;
74959;SDS011;63518;49.572;1.106;2023-07-02T09:48:44;12.57;;;3.30;;
74959;SDS011;63518;49.572;1.106;2023-07-02T09:51:12;11.90;;;3.22;;
74959;SDS011;63518;49.572;1.106;2023-07-02T09:53:39;12.80;;;3.15;;
74959;SDS011;63518;49.572;1.106;2023-07-02T09:56:06;12.20;;;3.20;;
74959;SDS011;63518;49.572;1.106;2023-07-02T09:58:35;14.65;;;3.50;;
74959;SDS011;63518;49.572;1.106;2023-07-02T10:01:01;14.50;;;3.47;;
74959;SDS011;63518;49.572;1.106;2023-07-02T10:03:31;10.73;;;2.80;;
74959;SDS011;63518;49.572;1.106;2023-07-02T10:06:07;13.25;;;3.25;;
74959;SDS011;63518;49.572;1.106;2023-07-02T10:13:35;10.93;;;3.25;;
74959;SDS011;63518;49.572;1.106;2023-07-02T10:16:02;11.13;;;3.38;;
74959;SDS011;63518;49.572;1.106;2023-07-02T10:18:30;12.75;;;3.28;;
74959;SDS011;63518;49.572;1.106;2023-07-02T10:20:57;12.10;;;4.00;;
74959;SDS011;63518;49.572;1.106;2023-07-02T10:23:33;9.35;;;3.38;;
74959;SDS011;63518;49.572;1.106;2023-07-02T10:31:19;9.38;;;3.00;;
74959;SDS011;63518;49.572;1.106;2023-07-02T10:33:47;8.07;;;2.42;;
74959;SDS011;63518;49.572;1.106;2023-07-02T10:36:20;12.48;;;3.75;;
74959;SDS011;63518;49.572;1.106;2023-07-02T10:38:49;10.23;;;3.08;;
74959;SDS011;63518;49.572;1.106;2023-07-02T10:41:27;11.07;;;2.60;;
74959;SDS011;63518;49.572;1.106;2023-07-02T10:44:04;8.02;;;2.70;;
74959;SDS011;63518;49.572;1.106;2023-07-02T10:46:45;9.38;;;3.15;;
74959;SDS011;63518;49.572;1.106;2023-07-02T10:49:16;11.43;;;3.53;;
74959;SDS011;63518;49.572;1.106;2023-07-02T10:51:55;6.40;;;2.55;;
74959;SDS011;63518;49.572;1.106;2023-07-02T10:54:23;11.27;;;3.03;;
74959;SDS011;63518;49.572;1.106;2023-07-02T10:56:56;8.88;;;2.83;;
74959;SDS011;63518;49.572;1.106;2023-07-02T10:59:24;9.60;;;2.90;;
74959;SDS011;63518;49.572;1.106;2023-07-02T11:01:52;8.10;;;2.67;;
74959;SDS011;63518;49.572;1.106;2023-07-02T11:04:19;10.93;;;2.83;;
74959;SDS011;63518;49.572;1.106;2023-07-02T11:06:47;7.68;;;2.40;;
74959;SDS011;63518;49.572;1.106;2023-07-02T11:09:17;8.27;;;2.35;;
74959;SDS011;63518;49.572;1.106;2023-07-02T11:11:54;12.35;;;3.63;;
74959;SDS011;63518;49.572;1.106;2023-07-02T11:14:26;9.30;;;2.97;;
74959;SDS011;63518;49.572;1.106;2023-07-02T11:16:58;10.57;;;3.10;;
74959;SDS011;63518;49.572;1.106;2023-07-02T11:19:29;9.57;;;2.95;;
74959;SDS011;63518;49.572;1.106;2023-07-02T11:21:58;8.48;;;2.30;;
74959;SDS011;63518;49.572;1.106;2023-07-02T11:24:30;8.07;;;2.75;;
74959;SDS011;63518;49.572;1.106;2023-07-02T11:27:03;12.20;;;2.95;;
74959;SDS011;63518;49.572;1.106;2023-07-02T11:29:34;14.60;;;3.33;;
74959;SDS011;63518;49.572;1.106;2023-07-02T11:32:07;11.13;;;2.75;;
74959;SDS011;63518;49.572;1.106;2023-07-02T11:34:36;11.88;;;3.00;;
74959;SDS011;63518;49.572;1.106;2023-07-02T11:37:03;9.18;;;1.88;;
74959;SDS011;63518;49.572;1.106;2023-07-02T11:39:31;9.32;;;2.65;;
74959;SDS011;63518;49.572;1.106;2023-07-02T11:41:58;14.05;;;2.55;;
74959;SDS011;63518;49.572;1.106;2023-07-02T11:44:25;8.90;;;2.95;;
74959;SDS011;63518;49.572;1.106;2023-07-02T11:46:52;10.13;;;2.97;;
74959;SDS011;63518;49.572;1.106;2023-07-02T11:49:19;10.00;;;2.08;;
74959;SDS011;63518;49.572;1.106;2023-07-02T11:51:46;7.00;;;1.92;;
74959;SDS011;63518;49.572;1.106;2023-07-02T11:54:15;9.73;;;2.90;;
74959;SDS011;63518;49.572;1.106;2023-07-02T11:56:42;11.82;;;4.25;;
74959;SDS011;63518;49.572;1.106;2023-07-02T11:59:10;11.32;;;2.90;;
74959;SDS011;63518;49.572;1.106;2023-07-02T12:01:37;9.25;;;2.40;;
74959;SDS011;63518;49.572;1.106;2023-07-02T12:04:04;7.97;;;2.53;;
74959;SDS011;63518;49.572;1.106;2023-07-02T12:06:35;13.15;;;2.20;;
74959;SDS011;63518;49.572;1.106;2023-07-02T12:09:02;8.75;;;2.25;;
74959;SDS011;63518;49.572;1.106;2023-07-02T12:11:29;7.10;;;2.20;;
74959;SDS011;63518;49.572;1.106;2023-07-02T12:13:56;9.95;;;2.50;;
74959;SDS011;63518;49.572;1.106;2023-07-02T12:16:23;6.90;;;1.73;;
74959;SDS011;63518;49.572;1.106;2023-07-02T12:18:50;8.95;;;2.30;;
74959;SDS011;63518;49.572;1.106;2023-07-02T12:21:17;8.90;;;2.05;;
74959;SDS011;63518;49.572;1.106;2023-07-02T12:23:45;11.20;;;2.22;;
74959;SDS011;63518;49.572;1.106;2023-07-02T12:26:12;7.32;;;2.35;;
74959;SDS011;63518;49.572;1.106;2023-07-02T12:28:39;7.90;;;2.30;;
74959;SDS011;63518;49.572;1.106;2023-07-02T12:31:06;8.25;;;2.42;;
74959;SDS011;63518;49.572;1.106;2023-07-02T12:33:33;9.02;;;2.90;;
74959;SDS011;63518;49.572;1.106;2023-07-02T12:36:01;8.10;;;2.22;;
74959;SDS011;63518;49.572;1.106;2023-07-02T12:38:29;8.50;;;2.30;;
74959;SDS011;63518;49.572;1.106;2023-07-02T12:40:56;8.38;;;2.40;;
74959;SDS011;63518;49.572;1.106;2023-07-02T12:43:23;12.68;;;3.55;;
74959;SDS011;63518;49.572;1.106;2023-07-02T12:45:50;10.98;;;2.60;;
74959;SDS011;63518;49.572;1.106;2023-07-02T12:48:18;8.85;;;2.17;;
74959;SDS011;63518;49.572;1.106;2023-07-02T12:50:58;4.78;;;1.77;;
74959;SDS011;63518;49.572;1.106;2023-07-02T12:53:26;6.97;;;2.15;;
74959;SDS011;63518;49.572;1.106;2023-07-02T12:55:54;6.90;;;2.70;;
74959;SDS011;63518;49.572;1.106;2023-07-02T12:58:21;5.65;;;2.50;;
74959;SDS011;63518;49.572;1.106;2023-07-02T13:00:48;6.00;;;2.55;;
74959;SDS011;63518;49.572;1.106;2023-07-02T13:03:16;10.85;;;2.97;;
74959;SDS011;63518;49.572;1.106;2023-07-02T13:05:47;7.57;;;2.45;;
74959;SDS011;63518;49.572;1.106;2023-07-02T13:08:14;11.13;;;3.00;;
74959;SDS011;63518;49.572;1.106;2023-07-02T13:10:41;11.40;;;2.58;;
74959;SDS011;63518;49.572;1.106;2023-07-02T13:13:09;8.48;;;2.53;;
74959;SDS011;63518;49.572;1.106;2023-07-02T13:15:49;7.95;;;2.47;;
74959;SDS011;63518;49.572;1.106;2023-07-02T13:18:16;8.20;;;2.20;;
74959;SDS011;63518;49.572;1.106;2023-07-02T13:20:43;6.88;;;2.40;;
74959;SDS011;63518;49.572;1.106;2023-07-02T13:23:10;9.00;;;2.50;;
74959;SDS011;63518;49.572;1.106;2023-07-02T13:25:37;9.88;;;2.65;;
74959;SDS011;63518;49.572;1.106;2023-07-02T13:28:05;10.13;;;3.30;;
74959;SDS011;63518;49.572;1.106;2023-07-02T13:30:34;10.68;;;2.25;;
74959;SDS011;63518;49.572;1.106;2023-07-02T13:33:08;9.32;;;2.97;;
74959;SDS011;63518;49.572;1.106;2023-07-02T13:35:38;10.25;;;3.05;;
74959;SDS011;63518;49.572;1.106;2023-07-02T13:38:05;10.55;;;3.40;;
74959;SDS011;63518;49.572;1.106;2023-07-02T13:40:34;9.43;;;2.33;;
74959;SDS011;63518;49.572;1.106;2023-07-02T13:43:02;11.57;;;2.20;;
74959;SDS011;63518;49.572;1.106;2023-07-02T13:45:29;10.18;;;2.70;;
74959;SDS011;63518;49.572;1.106;2023-07-02T13:47:56;8.82;;;2.17;;
74959;SDS011;63518;49.572;1.106;2023-07-02T13:50:24;10.45;;;2.97;;
74959;SDS011;63518;49.572;1.106;2023-07-02T13:52:51;8.93;;;2.70;;
74959;SDS011;63518;49.572;1.106;2023-07-02T13:55:17;4.53;;;1.95;;
74959;SDS011;63518;49.572;1.106;2023-07-02T13:57:45;12.18;;;1.83;;
74959;SDS011;63518;49.572;1.106;2023-07-02T14:00:12;5.22;;;2.40;;
74959;SDS011;63518;49.572;1.106;2023-07-02T14:02:39;7.28;;;2.00;;
74959;SDS011;63518;49.572;1.106;2023-07-02T14:05:06;7.57;;;2.50;;
74959;SDS011;63518;49.572;1.106;2023-07-02T14:07:33;7.68;;;2.10;;
74959;SDS011;63518;49.572;1.106;2023-07-02T14:10:01;10.68;;;3.05;;
74959;SDS011;63518;49.572;1.106;2023-07-02T14:12:29;13.15;;;3.15;;
74959;SDS011;63518;49.572;1.106;2023-07-02T14:14:56;9.48;;;2.85;;
74959;SDS011;63518;49.572;1.106;2023-07-02T14:17:26;7.10;;;2.30;;
74959;SDS011;63518;49.572;1.106;2023-07-02T14:19:54;8.60;;;2.55;;
74959;SDS011;63518;49.572;1.106;2023-07-02T14:22:21;10.07;;;3.08;;
74959;SDS011;63518;49.572;1.106;2023-07-02T14:24:48;10.43;;;3.35;;
74959;SDS011;63518;49.572;1.106;2023-07-02T14:27:15;8.80;;;2.63;;
74959;SDS011;63518;49.572;1.106;2023-07-02T14:29:42;9.30;;;2.20;;
74959;SDS011;63518;49.572;1.106;2023-07-02T14:32:09;8.50;;;2.05;;
74959;SDS011;63518;49.572;1.106;2023-07-02T14:34:36;9.20;;;2.80;;
74959;SDS011;63518;49.572;1.106;2023-07-02T14:37:03;10.90;;;3.08;;
74959;SDS011;63518;49.572;1.106;2023-07-02T14:39:31;8.30;;;2.45;;
74959;SDS011;63518;49.572;1.106;2023-07-02T14:41:59;6.75;;;2.30;;
74959;SDS011;63518;49.572;1.106;2023-07-02T14:44:26;9.60;;;3.40;;
74959;SDS011;63518;49.572;1.106;2023-07-02T14:46:53;11.55;;;2.55;;
74959;SDS011;63518;49.572;1.106;2023-07-02T14:49:20;9.73;;;2.60;;
74959;SDS011;63518;49.572;1.106;2023-07-02T14:51:47;9.70;;;2.55;;
74959;SDS011;63518;49.572;1.106;2023-07-02T14:54:15;8.85;;;2.50;;
74959;SDS011;63518;49.572;1.106;2023-07-02T14:56:42;8.23;;;2.83;;
74959;SDS011;63518;49.572;1.106;2023-07-02T14:59:08;9.45;;;2.60;;
74959;SDS011;63518;49.572;1.106;2023-07-02T15:01:35;10.75;;;2.85;;
74959;SDS011;63518;49.572;1.106;2023-07-02T15:04:02;9.20;;;3.28;;
74959;SDS011;63518;49.572;1.106;2023-07-02T15:06:30;8.30;;;2.95;;
74959;SDS011;63518;49.572;1.106;2023-07-02T15:08:57;10.95;;;3.15;;
74959;SDS011;63518;49.572;1.106;2023-07-02T15:11:24;9.90;;;2.88;;
74959;SDS011;63518;49.572;1.106;2023-07-02T15:13:51;9.25;;;2.53;;
74959;SDS011;63518;49.572;1.106;2023-07-02T15:16:18;8.68;;;2.65;;
74959;SDS011;63518;49.572;1.106;2023-07-02T15:18:47;7.38;;;2.45;;
74959;SDS011;63518;49.572;1.106;2023-07-02T15:21:14;11.63;;;2.83;;
74959;SDS011;63518;49.572;1.106;2023-07-02T15:23:43;9.50;;;3.13;;
74959;SDS011;63518;49.572;1.106;2023-07-02T15:26:10;7.88;;;2.50;;
74959;SDS011;63518;49.572;1.106;2023-07-02T15:28:37;8.57;;;2.50;;
74959;SDS011;63518;49.572;1.106;2023-07-02T15:31:05;11.13;;;2.97;;
74959;SDS011;63518;49.572;1.106;2023-07-02T15:33:35;8.25;;;2.75;;
74959;SDS011;63518;49.572;1.106;2023-07-02T15:36:03;10.60;;;2.88;;
74959;SDS011;63518;49.572;1.106;2023-07-02T15:38:30;7.30;;;2.50;;
74959;SDS011;63518;49.572;1.106;2023-07-02T15:41:08;7.55;;;2.20;;
74959;SDS011;63518;49.572;1.106;2023-07-02T15:43:40;9.05;;;2.95;;
74959;SDS011;63518;49.572;1.106;2023-07-02T15:46:09;11.40;;;3.28;;
74959;SDS011;63518;49.572;1.106;2023-07-02T15:48:38;9.18;;;2.28;;
74959;SDS011;63518;49.572;1.106;2023-07-02T15:51:05;8.18;;;2.33;;
74959;SDS011;63518;49.572;1.106;2023-07-02T15:53:34;9.20;;;2.88;;
74959;SDS011;63518;49.572;1.106;2023-07-02T15:56:13;9.40;;;2.90;;
74959;SDS011;63518;49.572;1.106;2023-07-02T15:58:40;11.30;;;2.30;;
74959;SDS011;63518;49.572;1.106;2023-07-02T16:01:44;11.23;;;3.10;;
74959;SDS011;63518;49.572;1.106;2023-07-02T16:04:26;12.02;;;3.42;;
74959;SDS011;63518;49.572;1.106;2023-07-02T16:06:54;8.85;;;2.97;;
74959;SDS011;63518;49.572;1.106;2023-07-02T16:09:21;9.88;;;3.55;;
74959;SDS011;63518;49.572;1.106;2023-07-02T16:11:48;13.98;;;3.33;;
74959;SDS011;63518;49.572;1.106;2023-07-02T16:14:16;9.13;;;3.00;;
74959;SDS011;63518;49.572;1.106;2023-07-02T16:16:45;10.15;;;3.00;;
74959;SDS011;63518;49.572;1.106;2023-07-02T16:19:26;8.70;;;1.92;;
74959;SDS011;63518;49.572;1.106;2023-07-02T16:21:53;11.20;;;2.90;;
74959;SDS011;63518;49.572;1.106;2023-07-02T16:24:24;8.43;;;3.08;;
74959;SDS011;63518;49.572;1.106;2023-07-02T16:26:58;6.38;;;2.42;;
74959;SDS011;63518;49.572;1.106;2023-07-02T16:29:26;9.45;;;2.88;;
74959;SDS011;63518;49.572;1.106;2023-07-02T16:31:57;11.63;;;4.07;;